Terminal Aerodrome Forecast
Issued by NWS Greer, SC

Home | Current Version | Previous Version | Text Only | Print | Product List | Glossary On
Versions: 1 2 3 4 5 6 7 8 9 10 11 12 13 14 15 16 17 18 19 20 21 22 23 24 25
000
FTUS42 KGSP 301734
TAFAVL
TAF
KAVL 301734Z 3018/3118 15005KT P6SM BKN080 OVC100
     FM302200 00000KT P6SM VCSH OVC080
     FM310300 00000KT 5SM BR BKN070
     FM310700 00000KT 3SM BR BKN021
      TEMPO 3109/3113 3/4SM BR BKN005
     FM311400 00000KT P6SM BKN060=

USA.gov is the U.S. government's official web portal to all federal, state and local government web resources and services.